PYH weather

Cacique Aramare Airport
Puerto Ayacucho, Amazonas, Venezuela

Public forecast

Using degrees Celsius for public forecast. Weather courtesy of forecast.io.

METAR (pilot weather report)

Report is more than 6 hours old.

Retrieved 2018/01/24 14:00 UTC (2 years ago):

SVPA 241400Z /////KT CAVOK 30/20 Q1012

TAF (pilot weather forecast)

Closest forecast is Palonegro Airport, 344.9 nm (638.8 km) WNW. Retrieved 2019/09/16 12:33 UTC (3 hours ago):

TAF TAF SKBG 161030Z 1612/1712 VRB02KT 9999 SCT014 BKN080 BECMG 1614/1616 32010KT PROB40 TEMPO 1622/1702 5000 RADZ BCFG SCT012CB BKN070 BECMG 1701/1703 00000KT TX28/1619Z TN19/1711Z